Hillsboro, Alabama
Current Conditions -  °F | °C
As of 12:53 PM on Friday 31 Oct 2014 (Local Time) from KDCU Reporting Station
Overcast Overcast  
Wind Chill: 58°   Ceiling: 6500
Heat Index: 58°   Visibility: 10mi
Dew Point: 44°   Wind: 7mph
Humidity: 60%   Direction: 320°NW
Pressure: 30"   Gusts: NA
Location:  34.64°N, 87.19°W
Report Text: KDCU 311753Z AUTO 32006KT 10SM FEW042 OVC065 14/07 A3000 RMK AO2 SLP156 T01440067 10150 20083 58008
Loading
Personal Weather Stations






























Interactive Weather Map
Tropical Storm Tracking
New forecast layout! Learn more

10-Day Weather Forecast

Advertisements
Track Severe Weather on mobile